Time;durP1;ratioP1;P1;durP2;ratioP2;P2;SDS_P1;SDS_P2;PMS_P1;PMS_P2;Temp;Humidity;BMP_temperature;BMP_pressure;BME280_temperature;BME280_humidity;BME280_pressure;Samples;Min_cycle;Max_cycle;Signal;HPM_P1;HPM_P2
2021/08/01 00:00:50;;;;;;;8.73;6.30;;;;;;;;;;5021245;28;20044;-78
2021/08/01 00:03:16;;;;;;;8.45;7.10;;;;;;;;;;5028769;28;20057;-78
2021/08/01 00:05:45;;;;;;;7.78;6.43;;;;;;;;;;5027200;28;20025;-78
2021/08/01 00:08:11;;;;;;;8.60;6.18;;;;;;;;;;5027467;28;20083;-78
2021/08/01 00:10:37;;;;;;;8.73;6.35;;;;;;;;;;5008878;28;20054;-78
2021/08/01 00:13:03;;;;;;;9.30;6.82;;;;;;;;;;5026180;28;20026;-78
2021/08/01 00:15:29;;;;;;;7.82;6.50;;;;;;;;;;5028929;28;20104;-78
2021/08/01 00:17:54;;;;;;;7.82;6.63;;;;;;;;;;5001091;28;20335;-78
2021/08/01 00:20:19;;;;;;;10.15;7.18;;;;;;;;;;5031753;28;20137;-78
2021/08/01 00:22:45;;;;;;;7.85;6.45;;;;;;;;;;5010082;28;20136;-78
2021/08/01 00:25:11;;;;;;;8.52;7.00;;;;;;;;;;5026001;28;20030;-78
2021/08/01 00:27:36;;;;;;;11.80;7.28;;;;;;;;;;5008122;28;20385;-78
2021/08/01 00:30:10;;;;;;;9.15;7.05;;;;;;;;;;5027245;28;20029;-78
2021/08/01 00:32:36;;;;;;;9.07;6.68;;;;;;;;;;5026303;28;20030;-78
2021/08/01 00:35:02;;;;;;;8.68;7.05;;;;;;;;;;5025153;28;20041;-78
2021/08/01 00:37:27;;;;;;;8.48;6.90;;;;;;;;;;5023244;28;20017;-78
2021/08/01 00:39:53;;;;;;;8.88;7.10;;;;;;;;;;5007921;28;20038;-78
2021/08/01 00:42:18;;;;;;;9.45;6.95;;;;;;;;;;5021152;28;20091;-78
2021/08/01 00:44:44;;;;;;;8.27;7.28;;;;;;;;;;5028611;28;20036;-78
2021/08/01 00:47:10;;;;;;;8.50;7.45;;;;;;;;;;5026495;28;20735;-78
2021/08/01 00:49:36;;;;;;;9.52;7.43;;;;;;;;;;5024642;28;20026;-78
2021/08/01 00:52:04;;;;;;;10.20;7.47;;;;;;;;;;5025696;28;20402;-78
2021/08/01 00:54:31;;;;;;;9.07;7.30;;;;;;;;;;5021865;28;20385;-78
2021/08/01 00:56:56;;;;;;;9.15;7.07;;;;;;;;;;5030042;28;20033;-78
2021/08/01 00:59:22;;;;;;;9.82;7.45;;;;;;;;;;5029661;28;20049;-78
2021/08/01 01:02:10;;;;;;;9.98;7.20;;;;;;;;;;5029202;28;20037;-78
2021/08/01 01:04:54;;;;;;;9.00;7.97;;;;;;;;;;5023793;28;20045;-78
2021/08/01 01:07:25;;;;;;;9.05;7.38;;;;;;;;;;5024749;28;20100;-78
2021/08/01 01:10:00;;;;;;;12.77;7.63;;;;;;;;;;5023329;28;20083;-78
2021/08/01 01:12:45;;;;;;;9.70;7.60;;;;;;;;;;5032842;28;20112;-78
2021/08/01 01:15:16;;;;;;;10.40;8.18;;;;;;;;;;5034187;28;20021;-78
2021/08/01 01:17:46;;;;;;;9.98;8.30;;;;;;;;;;5029315;28;20029;-78
2021/08/01 01:20:43;;;;;;;12.55;8.23;;;;;;;;;;5030122;28;20056;-78
2021/08/01 01:23:34;;;;;;;9.52;8.52;;;;;;;;;;5027018;28;20668;-78
2021/08/01 01:26:02;;;;;;;10.15;8.48;;;;;;;;;;5029580;28;20026;-78
2021/08/01 01:28:40;;;;;;;9.43;8.10;;;;;;;;;;5028180;28;20105;-78
2021/08/01 01:31:36;;;;;;;9.68;8.70;;;;;;;;;;5026368;28;20032;-78
2021/08/01 01:34:09;;;;;;;9.88;8.48;;;;;;;;;;5024108;28;20033;-77
2021/08/01 01:36:36;;;;;;;11.18;8.35;;;;;;;;;;5026519;28;20472;-78
2021/08/01 01:39:04;;;;;;;10.18;8.57;;;;;;;;;;5029118;28;20465;-78
2021/08/01 01:41:30;;;;;;;9.70;8.43;;;;;;;;;;5028494;28;20098;-78
2021/08/01 01:43:56;;;;;;;12.73;8.85;;;;;;;;;;5010693;28;20029;-78
2021/08/01 01:46:23;;;;;;;11.50;8.68;;;;;;;;;;5023088;28;20037;-78
2021/08/01 01:48:49;;;;;;;11.13;9.25;;;;;;;;;;5023442;28;20034;-78
2021/08/01 01:51:15;;;;;;;9.85;8.27;;;;;;;;;;5032247;28;20030;-78
2021/08/01 01:53:41;;;;;;;10.30;8.60;;;;;;;;;;5010373;28;20029;-78
2021/08/01 01:56:09;;;;;;;10.15;8.57;;;;;;;;;;5028930;28;20022;-78
2021/08/01 01:58:34;;;;;;;9.77;8.77;;;;;;;;;;5028417;28;20033;-78
2021/08/01 02:01:00;;;;;;;10.18;9.07;;;;;;;;;;5029824;28;20492;-78
2021/08/01 02:03:27;;;;;;;10.30;9.20;;;;;;;;;;5024796;28;20041;-78
2021/08/01 02:05:53;;;;;;;10.93;9.13;;;;;;;;;;5026203;28;20033;-78
2021/08/01 02:08:19;;;;;;;9.35;8.35;;;;;;;;;;5029613;28;20136;-78
2021/08/01 02:10:55;;;;;;;11.13;9.07;;;;;;;;;;5006423;28;20120;-78
2021/08/01 02:13:29;;;;;;;9.32;8.02;;;;;;;;;;5030973;28;20039;-78
2021/08/01 02:15:57;;;;;;;10.20;8.30;;;;;;;;;;5026147;28;20040;-78
2021/08/01 02:18:33;;;;;;;13.40;8.95;;;;;;;;;;5024820;28;20033;-78
2021/08/01 02:21:00;;;;;;;9.75;8.52;;;;;;;;;;5022702;28;20026;-80
2021/08/01 02:23:29;;;;;;;11.93;8.73;;;;;;;;;;5024838;28;20037;-78
2021/08/01 02:25:56;;;;;;;10.00;9.00;;;;;;;;;;5030100;28;20026;-78
2021/08/01 02:28:25;;;;;;;9.98;8.77;;;;;;;;;;5027882;28;20034;-78
2021/08/01 02:30:54;;;;;;;10.02;8.13;;;;;;;;;;5033849;28;20018;-78
2021/08/01 02:33:19;;;;;;;11.10;8.57;;;;;;;;;;5027741;28;20381;-78
2021/08/01 02:35:46;;;;;;;14.57;8.43;;;;;;;;;;5025229;28;20028;-78
2021/08/01 02:38:14;;;;;;;12.55;9.10;;;;;;;;;;5012814;28;20416;-78
2021/08/01 02:40:41;;;;;;;12.20;8.88;;;;;;;;;;5026435;28;20108;-78
2021/08/01 02:43:11;;;;;;;9.95;8.35;;;;;;;;;;5027615;28;20113;-78
2021/08/01 02:45:39;;;;;;;10.00;8.25;;;;;;;;;;5024927;28;20481;-78
2021/08/01 02:48:07;;;;;;;10.25;8.50;;;;;;;;;;5026594;28;20560;-78
2021/08/01 02:50:35;;;;;;;12.32;8.25;;;;;;;;;;5031998;28;20376;-78
2021/08/01 02:53:03;;;;;;;9.38;7.97;;;;;;;;;;5029503;28;20144;-78
2021/08/01 02:55:31;;;;;;;13.48;8.52;;;;;;;;;;5025340;28;20515;-78
2021/08/01 02:57:58;;;;;;;8.90;8.00;;;;;;;;;;5024650;28;20170;-78
2021/08/01 03:00:24;;;;;;;11.30;8.23;;;;;;;;;;5023362;28;20135;-78
2021/08/01 03:02:51;;;;;;;9.95;7.80;;;;;;;;;;5024533;28;20037;-78
2021/08/01 03:05:17;;;;;;;9.48;8.30;;;;;;;;;;5026679;28;20041;-78
2021/08/01 03:07:44;;;;;;;11.77;8.52;;;;;;;;;;5025435;28;20053;-78
2021/08/01 03:10:10;;;;;;;13.15;8.30;;;;;;;;;;5027533;28;20068;-78
2021/08/01 03:12:43;;;;;;;10.50;8.73;;;;;;;;;;5024285;28;20056;-78
2021/08/01 03:15:09;;;;;;;12.93;9.25;;;;;;;;;;5025172;28;20045;-78
2021/08/01 03:17:35;;;;;;;12.65;8.77;;;;;;;;;;5008922;28;20037;-78
2021/08/01 03:20:00;;;;;;;11.85;8.43;;;;;;;;;;5024851;28;20037;-78
2021/08/01 03:22:25;;;;;;;11.15;8.20;;;;;;;;;;5024358;28;20041;-78
2021/08/01 03:24:51;;;;;;;11.30;8.52;;;;;;;;;;5022603;28;20095;-78
2021/08/01 03:27:16;;;;;;;12.35;8.60;;;;;;;;;;5029164;28;20041;-78
2021/08/01 03:29:42;;;;;;;11.18;8.82;;;;;;;;;;5029227;28;20029;-78
2021/08/01 03:32:07;;;;;;;12.38;8.68;;;;;;;;;;5022203;28;20505;-78
2021/08/01 03:34:32;;;;;;;13.48;8.80;;;;;;;;;;5010327;28;20033;-78
2021/08/01 03:36:58;;;;;;;12.57;8.82;;;;;;;;;;5023569;28;20026;-78
2021/08/01 03:39:23;;;;;;;14.55;8.82;;;;;;;;;;5024739;28;20034;-78
2021/08/01 03:41:49;;;;;;;10.55;8.73;;;;;;;;;;5013052;28;20346;-78
2021/08/01 03:44:14;;;;;;;11.82;9.13;;;;;;;;;;5025513;28;20052;-78
2021/08/01 03:46:40;;;;;;;13.65;9.02;;;;;;;;;;5020866;28;20156;-78
2021/08/01 03:49:06;;;;;;;13.15;8.73;;;;;;;;;;5023105;28;20045;-78
2021/08/01 03:51:32;;;;;;;13.75;9.35;;;;;;;;;;5002156;28;20370;-78
2021/08/01 03:53:57;;;;;;;13.35;8.85;;;;;;;;;;5020846;28;20030;-78
2021/08/01 03:56:23;;;;;;;12.35;8.85;;;;;;;;;;5027201;28;20029;-78
2021/08/01 03:58:48;;;;;;;14.32;8.68;;;;;;;;;;5004264;28;20057;-78
2021/08/01 04:01:14;;;;;;;13.13;9.13;;;;;;;;;;5026482;28;20032;-78
2021/08/01 04:03:40;;;;;;;13.88;8.88;;;;;;;;;;5025208;28;20038;-78
2021/08/01 04:06:08;;;;;;;11.13;8.88;;;;;;;;;;5025811;28;20033;-78
2021/08/01 04:08:34;;;;;;;12.70;9.15;;;;;;;;;;5020786;28;20504;-78
2021/08/01 04:11:05;;;;;;;13.07;9.55;;;;;;;;;;5028226;28;20091;-78
2021/08/01 04:13:31;;;;;;;12.18;9.50;;;;;;;;;;5007541;28;20401;-78
2021/08/01 04:15:56;;;;;;;12.80;9.73;;;;;;;;;;5029173;28;20025;-78
2021/08/01 04:18:21;;;;;;;13.85;9.30;;;;;;;;;;5025137;28;20080;-78
2021/08/01 04:20:47;;;;;;;10.85;8.98;;;;;;;;;;5003177;28;20471;-78
2021/08/01 04:23:12;;;;;;;13.10;8.85;;;;;;;;;;5027023;28;20029;-78
2021/08/01 04:25:37;;;;;;;11.55;9.15;;;;;;;;;;5022124;28;20197;-78
2021/08/01 04:28:03;;;;;;;14.93;9.55;;;;;;;;;;5025624;28;20108;-78
2021/08/01 04:30:29;;;;;;;14.82;9.10;;;;;;;;;;5022785;28;20417;-78
2021/08/01 04:32:54;;;;;;;13.32;9.48;;;;;;;;;;5029274;28;20045;-78
2021/08/01 04:35:19;;;;;;;12.50;9.00;;;;;;;;;;5029731;28;20033;-78
2021/08/01 04:37:45;;;;;;;14.85;9.88;;;;;;;;;;5030963;28;20401;-78
2021/08/01 04:40:11;;;;;;;12.77;9.70;;;;;;;;;;5033518;28;20474;-78
2021/08/01 04:42:36;;;;;;;11.73;9.02;;;;;;;;;;5028313;28;20096;-78
2021/08/01 04:45:02;;;;;;;16.70;10.40;;;;;;;;;;5028666;28;20037;-78
2021/08/01 04:47:27;;;;;;;16.05;10.40;;;;;;;;;;5025398;28;20482;-78
2021/08/01 04:49:53;;;;;;;17.30;10.70;;;;;;;;;;5030421;28;20034;-78
2021/08/01 04:52:19;;;;;;;17.92;11.35;;;;;;;;;;5017015;28;20037;-78
2021/08/01 04:54:45;;;;;;;16.63;11.80;;;;;;;;;;5030340;28;20046;-78
2021/08/01 04:57:11;;;;;;;16.85;12.07;;;;;;;;;;5030125;28;20033;-78
2021/08/01 04:59:37;;;;;;;17.05;12.75;;;;;;;;;;5024844;28;20045;-78
2021/08/01 05:02:03;;;;;;;19.63;14.05;;;;;;;;;;5030089;28;20075;-78
2021/08/01 05:04:29;;;;;;;22.00;15.65;;;;;;;;;;5030511;28;20037;-78
2021/08/01 05:06:55;;;;;;;22.85;15.60;;;;;;;;;;5030080;28;20044;-78
2021/08/01 05:09:20;;;;;;;24.27;14.95;;;;;;;;;;5027472;28;20033;-78
2021/08/01 05:11:46;;;;;;;21.75;14.63;;;;;;;;;;5029218;28;20076;-78
2021/08/01 05:14:11;;;;;;;26.15;15.98;;;;;;;;;;5025153;28;20036;-78
2021/08/01 05:16:36;;;;;;;31.08;16.38;;;;;;;;;;5028233;28;20052;-78
2021/08/01 05:19:02;;;;;;;28.25;16.13;;;;;;;;;;5026269;28;20021;-78
2021/08/01 05:21:27;;;;;;;25.85;16.15;;;;;;;;;;5016107;28;20476;-78
2021/08/01 05:23:53;;;;;;;30.50;16.77;;;;;;;;;;5029878;28;20524;-78
2021/08/01 05:26:19;;;;;;;28.88;16.05;;;;;;;;;;5028056;28;20489;-78
2021/08/01 05:28:44;;;;;;;26.13;14.98;;;;;;;;;;5028756;28;20025;-78
2021/08/01 05:31:10;;;;;;;28.60;15.65;;;;;;;;;;5015225;28;20033;-78
2021/08/01 05:33:35;;;;;;;28.45;16.20;;;;;;;;;;5025986;28;20037;-78
2021/08/01 05:36:08;;;;;;;28.52;16.58;;;;;;;;;;5028686;28;20064;-78
2021/08/01 05:38:35;;;;;;;28.33;17.30;;;;;;;;;;5000991;28;20034;-78
2021/08/01 05:41:00;;;;;;;28.77;16.88;;;;;;;;;;5029325;28;20040;-78
2021/08/01 05:43:26;;;;;;;30.50;17.40;;;;;;;;;;5031090;28;20022;-78
2021/08/01 05:45:51;;;;;;;29.38;16.67;;;;;;;;;;5027568;28;20060;-78
2021/08/01 05:48:16;;;;;;;33.05;17.23;;;;;;;;;;5025617;28;20062;-78
2021/08/01 05:50:42;;;;;;;36.58;17.73;;;;;;;;;;5028134;28;20033;-78
2021/08/01 05:53:07;;;;;;;34.20;19.15;;;;;;;;;;5023943;28;20033;-78
2021/08/01 05:55:33;;;;;;;37.10;18.38;;;;;;;;;;5011912;28;21505;-79
2021/08/01 05:57:58;;;;;;;31.27;17.27;;;;;;;;;;5027035;28;20049;-78
2021/08/01 06:00:23;;;;;;;37.92;18.42;;;;;;;;;;5030350;28;20080;-78
2021/08/01 06:02:49;;;;;;;37.58;19.75;;;;;;;;;;5023002;28;20029;-78
2021/08/01 06:05:14;;;;;;;38.60;18.88;;;;;;;;;;5013520;28;20037;-78
2021/08/01 06:07:40;;;;;;;38.83;19.58;;;;;;;;;;5012416;28;20168;-78
2021/08/01 06:10:05;;;;;;;39.40;18.95;;;;;;;;;;5027986;28;20033;-78
2021/08/01 06:12:31;;;;;;;35.60;19.63;;;;;;;;;;5031629;28;20096;-78
2021/08/01 06:14:56;;;;;;;36.30;19.70;;;;;;;;;;5027028;28;20053;-78
2021/08/01 06:17:22;;;;;;;36.50;20.33;;;;;;;;;;5025567;28;20346;-78
2021/08/01 06:19:47;;;;;;;35.85;19.25;;;;;;;;;;5031054;28;20076;-78
2021/08/01 06:22:15;;;;;;;33.67;18.48;;;;;;;;;;5015797;28;20025;-78
2021/08/01 06:24:40;;;;;;;36.33;20.30;;;;;;;;;;5026788;28;20063;-79
2021/08/01 06:27:06;;;;;;;36.38;19.65;;;;;;;;;;5033032;28;20037;-78
2021/08/01 06:29:31;;;;;;;39.30;20.83;;;;;;;;;;5025123;28;20116;-78
2021/08/01 06:31:56;;;;;;;37.20;19.42;;;;;;;;;;5028674;28;20079;-78
2021/08/01 06:34:23;;;;;;;38.17;21.15;;;;;;;;;;5031027;28;20029;-78
2021/08/01 06:36:49;;;;;;;41.58;21.25;;;;;;;;;;5026758;28;20120;-78
2021/08/01 06:39:15;;;;;;;39.88;20.52;;;;;;;;;;5026330;28;20148;-78
2021/08/01 06:41:40;;;;;;;41.75;22.00;;;;;;;;;;5005730;28;20034;-78
2021/08/01 06:44:05;;;;;;;43.53;21.30;;;;;;;;;;5026853;28;20080;-78
2021/08/01 06:46:31;;;;;;;38.65;21.25;;;;;;;;;;5027484;28;20054;-78
2021/08/01 06:48:56;;;;;;;40.08;21.63;;;;;;;;;;5027583;28;20044;-78
2021/08/01 06:51:22;;;;;;;38.75;21.23;;;;;;;;;;5032992;28;20026;-78
2021/08/01 06:53:47;;;;;;;42.25;21.38;;;;;;;;;;5027707;28;20031;-79
2021/08/01 06:56:12;;;;;;;39.25;21.90;;;;;;;;;;5027496;28;20025;-78
2021/08/01 06:58:38;;;;;;;40.75;21.92;;;;;;;;;;5030831;28;20052;-79
2021/08/01 07:01:03;;;;;;;40.42;21.75;;;;;;;;;;5026152;28;20493;-78
2021/08/01 07:03:29;;;;;;;43.80;21.52;;;;;;;;;;5027098;28;20025;-78
2021/08/01 07:05:55;;;;;;;39.85;22.77;;;;;;;;;;5032800;28;20030;-78
2021/08/01 07:08:20;;;;;;;38.13;21.38;;;;;;;;;;5010739;28;20062;-78
2021/08/01 07:10:46;;;;;;;42.00;21.67;;;;;;;;;;5026853;28;20527;-78
2021/08/01 07:13:11;;;;;;;41.10;22.52;;;;;;;;;;5016225;28;20072;-78
2021/08/01 07:15:37;;;;;;;43.47;22.42;;;;;;;;;;5012715;28;20416;-78
2021/08/01 07:18:04;;;;;;;40.53;21.70;;;;;;;;;;5025002;28;20029;-78
2021/08/01 07:20:30;;;;;;;41.50;21.77;;;;;;;;;;5024014;28;20030;-78
2021/08/01 07:22:57;;;;;;;39.92;22.25;;;;;;;;;;5012249;28;20078;-78
2021/08/01 07:25:23;;;;;;;41.13;22.27;;;;;;;;;;5027794;28;20029;-78
2021/08/01 07:27:49;;;;;;;39.45;21.98;;;;;;;;;;5012659;28;20503;-79
2021/08/01 07:30:14;;;;;;;37.40;20.85;;;;;;;;;;5029759;28;20026;-79
2021/08/01 07:32:40;;;;;;;39.92;21.63;;;;;;;;;;5026910;28;20021;-80
2021/08/01 07:35:06;;;;;;;35.38;20.52;;;;;;;;;;5024553;28;20531;-80
2021/08/01 07:37:31;;;;;;;40.60;20.98;;;;;;;;;;5027614;28;20033;-79
2021/08/01 07:39:57;;;;;;;40.08;20.50;;;;;;;;;;5026516;28;20034;-79
2021/08/01 07:42:22;;;;;;;36.67;20.38;;;;;;;;;;5027616;28;20029;-79
2021/08/01 07:47:18;;;;;;;42.30;21.88;;;;;;;;;;5022158;28;20049;-79
2021/08/01 07:49:44;;;;;;;43.92;21.80;;;;;;;;;;5029215;28;20048;-79
2021/08/01 07:52:10;;;;;;;44.90;22.77;;;;;;;;;;5024664;28;20030;-79
2021/08/01 07:54:36;;;;;;;39.13;21.08;;;;;;;;;;5032197;28;20021;-79
2021/08/01 07:57:02;;;;;;;42.10;21.63;;;;;;;;;;5028582;28;20444;-79
2021/08/01 07:59:27;;;;;;;41.85;22.85;;;;;;;;;;5031525;28;20057;-79
2021/08/01 08:01:52;;;;;;;41.63;21.52;;;;;;;;;;5028420;28;20041;-79
2021/08/01 08:04:18;;;;;;;42.00;21.63;;;;;;;;;;5027711;28;20025;-79
2021/08/01 08:06:43;;;;;;;39.42;20.70;;;;;;;;;;5034279;28;20919;-80
2021/08/01 08:09:09;;;;;;;40.90;20.98;;;;;;;;;;5017647;28;20040;-80
2021/08/01 08:11:34;;;;;;;39.38;20.98;;;;;;;;;;5021711;28;20045;-79
2021/08/01 08:14:00;;;;;;;39.78;21.90;;;;;;;;;;5019314;28;20033;-80
2021/08/01 08:16:25;;;;;;;42.75;21.38;;;;;;;;;;5037453;28;20083;-79
2021/08/01 08:18:51;;;;;;;39.97;20.98;;;;;;;;;;5039265;28;20021;-80
2021/08/01 08:21:17;;;;;;;42.45;21.15;;;;;;;;;;5038151;28;20041;-80
2021/08/01 08:23:42;;;;;;;42.42;22.10;;;;;;;;;;5030400;28;20025;-79
2021/08/01 08:26:08;;;;;;;35.35;19.85;;;;;;;;;;5036655;28;20528;-79
2021/08/01 08:28:33;;;;;;;37.67;21.02;;;;;;;;;;5031629;28;20053;-79
2021/08/01 08:30:59;;;;;;;39.20;21.33;;;;;;;;;;5035037;28;20121;-79
2021/08/01 08:33:25;;;;;;;43.33;22.15;;;;;;;;;;5007631;28;20041;-80
2021/08/01 08:35:50;;;;;;;41.08;20.55;;;;;;;;;;5033638;28;20025;-79
2021/08/01 08:38:16;;;;;;;37.67;20.60;;;;;;;;;;5032343;28;20044;-79
2021/08/01 08:40:41;;;;;;;41.28;22.40;;;;;;;;;;5033097;28;20073;-79
2021/08/01 08:43:08;;;;;;;37.90;20.70;;;;;;;;;;5037145;28;20021;-80
2021/08/01 08:45:34;;;;;;;36.90;20.00;;;;;;;;;;5032092;28;20050;-79
2021/08/01 08:47:59;;;;;;;37.90;19.98;;;;;;;;;;5037667;28;20592;-80
2021/08/01 08:50:25;;;;;;;38.00;20.52;;;;;;;;;;5036651;28;20037;-79
2021/08/01 08:52:55;;;;;;;36.45;19.80;;;;;;;;;;5020240;28;20025;-80
2021/08/01 08:55:28;;;;;;;37.42;19.67;;;;;;;;;;5032881;28;20528;-79
2021/08/01 08:58:00;;;;;;;39.80;21.00;;;;;;;;;;5032652;28;20091;-80
2021/08/01 09:00:27;;;;;;;35.72;19.83;;;;;;;;;;5011933;28;20045;-80
2021/08/01 09:02:53;;;;;;;42.00;20.08;;;;;;;;;;5032511;28;20431;-80
2021/08/01 09:05:18;;;;;;;36.72;20.38;;;;;;;;;;5031475;28;20079;-80
2021/08/01 09:07:43;;;;;;;32.28;19.05;;;;;;;;;;5034600;28;20033;-80
2021/08/01 09:10:10;;;;;;;35.63;19.98;;;;;;;;;;5017778;28;20037;-80
2021/08/01 09:12:42;;;;;;;34.63;18.88;;;;;;;;;;5029580;28;20384;-79
2021/08/01 09:15:16;;;;;;;34.47;19.35;;;;;;;;;;5030575;28;20478;-79
2021/08/01 09:17:42;;;;;;;32.10;19.15;;;;;;;;;;5035882;28;20036;-80
2021/08/01 09:20:17;;;;;;;32.90;19.02;;;;;;;;;;5033540;28;20466;-79
2021/08/01 09:23:02;;;;;;;33.25;18.90;;;;;;;;;;5029718;28;20424;-80
2021/08/01 09:25:32;;;;;;;34.28;20.10;;;;;;;;;;5025107;28;20128;-80
2021/08/01 09:28:08;;;;;;;32.45;19.17;;;;;;;;;;5015584;28;20029;-79
2021/08/01 09:30:45;;;;;;;33.92;18.95;;;;;;;;;;5022035;28;20820;-79
2021/08/01 09:33:11;;;;;;;35.88;18.75;;;;;;;;;;5024783;28;20030;-80
2021/08/01 09:35:37;;;;;;;29.98;17.88;;;;;;;;;;5021863;28;20025;-79
2021/08/01 09:38:03;;;;;;;29.67;18.38;;;;;;;;;;5020224;28;20040;-80
2021/08/01 09:40:32;;;;;;;29.75;17.77;;;;;;;;;;5005557;28;20481;-79
2021/08/01 09:43:09;;;;;;;30.15;17.23;;;;;;;;;;5002063;28;20044;-80
2021/08/01 09:45:36;;;;;;;28.83;16.70;;;;;;;;;;5022689;28;20053;-80
2021/08/01 09:48:19;;;;;;;30.13;17.45;;;;;;;;;;5017626;28;20196;-79
2021/08/01 09:51:09;;;;;;;27.80;17.33;;;;;;;;;;5018246;28;20056;-79
2021/08/01 09:53:36;;;;;;;29.42;16.25;;;;;;;;;;5018142;28;20037;-80
2021/08/01 09:56:11;;;;;;;25.98;16.13;;;;;;;;;;5003783;28;20107;-80
2021/08/01 09:58:37;;;;;;;25.85;15.73;;;;;;;;;;5015339;28;20109;-80
2021/08/01 10:01:03;;;;;;;27.95;15.90;;;;;;;;;;5023503;28;20151;-79
2021/08/01 10:03:36;;;;;;;27.27;16.23;;;;;;;;;;5012754;28;20483;-79
2021/08/01 10:06:17;;;;;;;28.48;15.93;;;;;;;;;;5016288;28;20033;-79
2021/08/01 10:08:45;;;;;;;27.95;16.25;;;;;;;;;;5019770;28;20034;-80
2021/08/01 10:11:20;;;;;;;26.45;16.63;;;;;;;;;;5017430;28;20577;-79
2021/08/01 10:13:51;;;;;;;24.88;16.02;;;;;;;;;;5018859;28;20073;-79
2021/08/01 10:16:17;;;;;;;25.55;14.95;;;;;;;;;;5015501;28;20026;-79
2021/08/01 10:18:44;;;;;;;23.63;15.50;;;;;;;;;;4998380;28;20033;-79
2021/08/01 10:21:12;;;;;;;29.70;16.80;;;;;;;;;;5013799;28;20033;-80
2021/08/01 10:23:47;;;;;;;26.77;16.58;;;;;;;;;;5012436;28;20116;-80
2021/08/01 10:26:16;;;;;;;26.45;17.15;;;;;;;;;;5019783;28;20040;-80
2021/08/01 10:28:50;;;;;;;27.10;17.48;;;;;;;;;;5022831;28;20029;-79
2021/08/01 10:31:19;;;;;;;31.95;18.00;;;;;;;;;;5025157;28;20493;-79
2021/08/01 10:33:51;;;;;;;29.70;18.73;;;;;;;;;;5020314;28;20484;-79
2021/08/01 10:36:24;;;;;;;31.60;19.07;;;;;;;;;;5020774;28;20067;-78
2021/08/01 10:38:52;;;;;;;25.38;15.38;;;;;;;;;;5023256;28;20087;-78
2021/08/01 10:41:19;;;;;;;23.38;15.05;;;;;;;;;;5022150;28;20052;-78
2021/08/01 10:43:47;;;;;;;14.32;10.45;;;;;;;;;;5008541;28;20551;-78
2021/08/01 10:46:20;;;;;;;14.05;9.27;;;;;;;;;;5018350;28;20037;-78
2021/08/01 10:48:46;;;;;;;18.45;11.82;;;;;;;;;;5023812;28;20038;-78
2021/08/01 10:51:12;;;;;;;20.27;12.20;;;;;;;;;;5022807;28;20034;-78
2021/08/01 10:53:38;;;;;;;20.25;13.23;;;;;;;;;;5024404;28;20026;-78
2021/08/01 10:56:06;;;;;;;23.13;14.13;;;;;;;;;;5004067;28;20059;-78
2021/08/01 10:58:36;;;;;;;25.27;15.80;;;;;;;;;;5021626;28;20029;-78
2021/08/01 11:01:03;;;;;;;25.10;15.63;;;;;;;;;;5024723;28;20067;-78
2021/08/01 11:03:31;;;;;;;22.15;15.15;;;;;;;;;;5029421;28;20043;-78
2021/08/01 11:05:57;;;;;;;25.67;15.30;;;;;;;;;;5011047;28;20041;-78
2021/08/01 11:08:24;;;;;;;21.80;14.77;;;;;;;;;;5021821;28;20469;-78
2021/08/01 11:11:11;;;;;;;18.92;12.40;;;;;;;;;;5014163;28;20032;-79
2021/08/01 11:13:42;;;;;;;18.25;12.77;;;;;;;;;;5011954;28;20665;-78
2021/08/01 11:16:09;;;;;;;23.13;12.15;;;;;;;;;;5018585;28;20036;-78
2021/08/01 11:18:45;;;;;;;17.13;10.98;;;;;;;;;;5011024;28;20025;-78
2021/08/01 11:21:12;;;;;;;17.27;11.98;;;;;;;;;;5014742;28;20080;-78
2021/08/01 11:23:46;;;;;;;22.20;14.15;;;;;;;;;;5015643;28;20056;-79
2021/08/01 11:26:19;;;;;;;16.85;12.05;;;;;;;;;;5016531;28;20385;-78
2021/08/01 11:29:02;;;;;;;16.13;12.00;;;;;;;;;;5017185;28;20452;-78
2021/08/01 11:31:28;;;;;;;20.50;11.95;;;;;;;;;;5012776;28;20033;-78
2021/08/01 11:33:56;;;;;;;18.50;12.60;;;;;;;;;;5013680;28;20037;-78
2021/08/01 11:36:24;;;;;;;17.33;11.43;;;;;;;;;;5015974;28;20025;-78
2021/08/01 11:38:56;;;;;;;16.63;12.00;;;;;;;;;;5015706;28;20056;-78
2021/08/01 11:41:27;;;;;;;15.85;11.70;;;;;;;;;;5010140;28;20025;-79
2021/08/01 11:43:58;;;;;;;17.92;12.00;;;;;;;;;;5014365;28;20461;-78
2021/08/01 11:46:25;;;;;;;20.17;12.88;;;;;;;;;;5009848;28;20079;-78
2021/08/01 11:49:02;;;;;;;19.70;13.90;;;;;;;;;;5013017;28;20068;-79
2021/08/01 11:51:29;;;;;;;21.85;13.52;;;;;;;;;;5015659;28;20037;-78
2021/08/01 11:53:55;;;;;;;17.60;13.00;;;;;;;;;;5012958;28;20473;-79
2021/08/01 11:56:21;;;;;;;16.92;12.20;;;;;;;;;;5014138;28;20041;-78
2021/08/01 11:58:56;;;;;;;16.63;12.07;;;;;;;;;;5018041;28;20040;-78
2021/08/01 12:01:22;;;;;;;16.13;11.13;;;;;;;;;;5017367;28;20052;-79
2021/08/01 12:03:51;;;;;;;14.57;5.65;;;;;;;;;;5013494;28;20469;-77
2021/08/01 12:06:35;;;;;;;7.10;3.25;;;;;;;;;;5015800;28;20044;-77
2021/08/01 12:09:25;;;;;;;7.95;2.50;;;;;;;;;;5009333;28;20136;-78
2021/08/01 12:11:55;;;;;;;6.97;2.35;;;;;;;;;;5018624;28;20045;-79
2021/08/01 12:14:41;;;;;;;5.65;2.45;;;;;;;;;;5025064;28;21706;-80
2021/08/01 12:17:08;;;;;;;3.78;1.83;;;;;;;;;;5008596;28;20099;-79
2021/08/01 12:19:34;;;;;;;5.03;2.30;;;;;;;;;;5016519;28;20608;-79
2021/08/01 12:22:06;;;;;;;5.05;2.20;;;;;;;;;;5025311;28;20676;-79
2021/08/01 12:24:51;;;;;;;6.90;2.28;;;;;;;;;;5023332;28;20120;-79
2021/08/01 12:27:29;;;;;;;4.32;1.90;;;;;;;;;;5016404;28;20108;-79
2021/08/01 12:29:57;;;;;;;3.00;1.60;;;;;;;;;;5030293;28;20070;-79
2021/08/01 12:32:43;;;;;;;5.40;1.80;;;;;;;;;;5025949;28;20166;-79
2021/08/01 12:35:15;;;;;;;3.65;1.70;;;;;;;;;;5021840;28;20044;-78
2021/08/01 12:37:52;;;;;;;2.83;1.55;;;;;;;;;;5016147;28;20026;-79
2021/08/01 12:40:27;;;;;;;2.50;1.60;;;;;;;;;;5019051;28;20029;-78
2021/08/01 12:43:23;;;;;;;2.75;1.60;;;;;;;;;;5025076;28;20485;-78
2021/08/01 12:45:49;;;;;;;2.42;1.65;;;;;;;;;;5017834;28;20041;-78
2021/08/01 12:48:24;;;;;;;2.60;1.80;;;;;;;;;;5034430;28;20053;-78
2021/08/01 12:50:55;;;;;;;2.97;1.88;;;;;;;;;;5021455;28;20584;-78
2021/08/01 12:53:22;;;;;;;3.22;1.48;;;;;;;;;;5026464;28;20439;-78
2021/08/01 12:55:54;;;;;;;3.67;1.80;;;;;;;;;;5027669;28;20033;-78
2021/08/01 12:58:29;;;;;;;2.97;1.70;;;;;;;;;;5030525;28;20112;-78
2021/08/01 13:00:54;;;;;;;3.47;2.08;;;;;;;;;;5023424;28;20037;-78
2021/08/01 13:03:36;;;;;;;3.50;2.10;;;;;;;;;;5030659;28;20063;-78
2021/08/01 13:06:03;;;;;;;4.72;2.78;;;;;;;;;;5029724;28;20087;-78
2021/08/01 13:08:49;;;;;;;3.55;2.90;;;;;;;;;;4994395;28;20041;-78
2021/08/01 13:11:34;;;;;;;4.05;2.95;;;;;;;;;;5020366;28;20030;-78
2021/08/01 13:14:09;;;;;;;5.07;3.63;;;;;;;;;;5024789;28;20044;-78
2021/08/01 13:16:55;;;;;;;6.05;4.13;;;;;;;;;;5021437;28;20040;-78
2021/08/01 13:19:26;;;;;;;5.00;3.83;;;;;;;;;;5038680;28;20048;-78
2021/08/01 13:22:12;;;;;;;6.03;3.92;;;;;;;;;;5032427;28;20763;-78
2021/08/01 13:24:46;;;;;;;4.60;3.45;;;;;;;;;;5021149;28;20544;-79
2021/08/01 13:27:14;;;;;;;4.80;3.47;;;;;;;;;;5027575;28;20118;-78
2021/08/01 13:29:40;;;;;;;4.43;3.60;;;;;;;;;;5029355;28;20740;-78
2021/08/01 13:32:20;;;;;;;6.10;3.75;;;;;;;;;;5030172;28;20132;-78
2021/08/01 13:34:53;;;;;;;4.80;3.80;;;;;;;;;;5025752;28;20032;-78
2021/08/01 13:37:29;;;;;;;;;;;;;;;;;;5029961;28;20074;-79
2021/08/01 13:40:03;;;;;;;3.83;2.85;;;;;;;;;;5010539;28;19956;-78
2021/08/01 13:42:42;;;;;;;7.32;4.47;;;;;;;;;;5025344;28;20034;-78
2021/08/01 13:45:11;;;;;;;8.80;5.03;;;;;;;;;;5025580;28;20112;-79
2021/08/01 13:47:37;;;;;;;5.93;4.80;;;;;;;;;;5029905;28;20102;-78
2021/08/01 13:50:12;;;;;;;5.50;4.70;;;;;;;;;;5032193;28;20448;-79
2021/08/01 13:52:42;;;;;;;5.30;4.30;;;;;;;;;;5029955;28;20040;-79
2021/08/01 13:55:08;;;;;;;6.20;4.55;;;;;;;;;;5030854;28;20033;-79
2021/08/01 13:57:34;;;;;;;4.95;3.92;;;;;;;;;;5021723;28;20091;-79
2021/08/01 14:00:01;;;;;;;5.60;4.10;;;;;;;;;;5031794;28;20067;-79
2021/08/01 14:02:27;;;;;;;4.90;4.10;;;;;;;;;;5033120;28;20032;-78
2021/08/01 14:04:53;;;;;;;6.00;4.47;;;;;;;;;;5025538;28;20473;-79
2021/08/01 14:07:19;;;;;;;6.18;4.20;;;;;;;;;;5030145;28;20025;-79
2021/08/01 14:09:45;;;;;;;5.40;3.65;;;;;;;;;;5031101;28;20402;-79
2021/08/01 14:12:11;;;;;;;5.82;4.72;;;;;;;;;;5030613;28;20128;-79
2021/08/01 14:14:37;;;;;;;5.40;3.83;;;;;;;;;;5032382;28;20104;-79
2021/08/01 14:17:04;;;;;;;7.00;5.13;;;;;;;;;;5007724;28;20125;-79
2021/08/01 14:19:29;;;;;;;6.30;4.65;;;;;;;;;;5029638;28;20030;-79
2021/08/01 14:21:55;;;;;;;7.72;5.30;;;;;;;;;;5025986;28;20091;-79
2021/08/01 14:24:21;;;;;;;6.35;4.82;;;;;;;;;;5026652;28;20111;-79
2021/08/01 14:26:48;;;;;;;5.30;4.53;;;;;;;;;;5026910;28;20038;-79
2021/08/01 14:29:19;;;;;;;5.85;4.95;;;;;;;;;;5030097;28;20044;-79
2021/08/01 14:31:46;;;;;;;6.43;5.72;;;;;;;;;;5009490;28;20029;-80
2021/08/01 14:34:13;;;;;;;8.23;6.18;;;;;;;;;;5024997;28;20061;-79
2021/08/01 14:36:39;;;;;;;7.88;6.25;;;;;;;;;;5032765;28;20558;-80
2021/08/01 14:39:10;;;;;;;6.65;5.10;;;;;;;;;;5029308;28;20029;-79